Time;durP1;ratioP1;P1;durP2;ratioP2;P2;SDS_P1;SDS_P2;PMS_P1;PMS_P2;Temp;Humidity;BMP_temperature;BMP_pressure;BME280_temperature;BME280_humidity;BME280_pressure;Samples;Min_cycle;Max_cycle;Signal;HPM_P1;HPM_P2
2023/03/19 00:01:37;;;;;;;1.50;1.00;;;11.90;98.20;;;;;;5054674;28;20500;-76
2023/03/19 00:04:04;;;;;;;1.50;1.10;;;11.90;98.20;;;;;;5061031;28;20465;-76
2023/03/19 00:06:31;;;;;;;1.50;1.10;;;11.90;98.20;;;;;;5053888;28;20477;-76
2023/03/19 05:46:35;;;;;;;1.50;1.17;;;11.00;98.20;;;;;;5046710;28;20676;-75
2023/03/19 05:49:02;;;;;;;1.50;1.20;;;11.00;98.20;;;;;;5058130;28;20576;-75
2023/03/19 05:51:29;;;;;;;1.57;1.20;;;11.00;98.20;;;;;;5046445;28;20473;-77
2023/03/19 05:53:56;;;;;;;1.50;1.10;;;11.00;98.20;;;;;;5063007;28;20465;-75
2023/03/19 05:56:23;;;;;;;1.50;1.20;;;11.00;98.20;;;;;;5068520;28;20965;-77
2023/03/19 05:58:49;;;;;;;1.50;1.10;;;11.00;98.20;;;;;;5068291;28;21015;-76
2023/03/19 06:01:16;;;;;;;1.50;1.20;;;11.00;98.20;;;;;;5075484;28;20534;-74
2023/03/19 06:03:45;;;;;;;1.53;1.10;;;11.00;98.20;;;;;;5058675;28;20482;-77
2023/03/19 06:06:12;;;;;;;1.50;1.10;;;11.00;98.20;;;;;;5049202;28;20824;-76
2023/03/19 06:08:39;;;;;;;1.50;1.10;;;11.10;98.20;;;;;;5046252;28;20517;-76
2023/03/19 06:11:06;;;;;;;1.50;1.10;;;11.10;98.20;;;;;;5041934;28;20461;-77
2023/03/19 06:13:32;;;;;;;1.50;1.10;;;11.10;98.20;;;;;;5063216;28;20469;-77
2023/03/19 06:15:59;;;;;;;1.50;1.20;;;11.10;98.20;;;;;;5054959;28;20476;-75
2023/03/19 06:18:26;;;;;;;1.50;1.10;;;11.10;98.20;;;;;;5061254;28;20937;-74
2023/03/19 06:20:54;;;;;;;1.60;1.10;;;11.20;98.20;;;;;;5042955;28;20994;-75
2023/03/19 06:23:21;;;;;;;1.50;1.00;;;11.20;98.20;;;;;;5052325;28;20473;-75
2023/03/19 06:25:48;;;;;;;1.50;1.07;;;11.20;98.20;;;;;;5041266;28;20971;-75
2023/03/19 06:28:15;;;;;;;1.57;1.20;;;11.30;98.20;;;;;;5060941;28;20497;-76
2023/03/19 06:30:42;;;;;;;1.50;1.10;;;11.30;98.20;;;;;;5063150;28;20552;-74
2023/03/19 06:33:09;;;;;;;1.50;1.10;;;11.30;98.20;;;;;;5051675;28;20482;-75
2023/03/19 06:35:36;;;;;;;1.50;1.00;;;11.30;98.20;;;;;;5064303;28;20457;-75
2023/03/19 06:38:05;;;;;;;1.50;1.00;;;11.30;98.20;;;;;;5055285;28;20630;-75
2023/03/19 06:40:31;;;;;;;1.50;1.10;;;11.40;98.20;;;;;;5063010;28;20468;-75
2023/03/19 06:42:58;;;;;;;1.60;1.20;;;11.40;98.20;;;;;;5038964;28;20481;-75
2023/03/19 06:45:25;;;;;;;1.50;1.10;;;11.40;98.20;;;;;;5057044;28;20461;-75
2023/03/19 06:47:52;;;;;;;1.50;1.10;;;11.40;98.20;;;;;;5046084;28;20948;-75
2023/03/19 06:50:19;;;;;;;1.50;1.10;;;11.40;98.20;;;;;;5051698;28;20509;-76
2023/03/19 06:52:46;;;;;;;1.57;1.10;;;11.40;98.20;;;;;;5050220;28;20931;-76
2023/03/19 06:55:14;;;;;;;1.50;1.07;;;11.50;98.20;;;;;;5073457;28;21323;-75
2023/03/19 06:57:41;;;;;;;1.50;1.10;;;11.50;98.20;;;;;;5058952;28;20492;-74
2023/03/19 07:00:10;;;;;;;1.50;1.10;;;11.50;98.20;;;;;;5065385;28;20458;-75
2023/03/19 07:02:37;;;;;;;1.50;1.10;;;11.50;98.20;;;;;;5047334;28;20979;-75
2023/03/19 07:05:04;;;;;;;1.53;1.10;;;11.50;98.20;;;;;;5063784;28;20474;-75
2023/03/19 07:07:31;;;;;;;1.50;1.10;;;11.60;98.20;;;;;;5058626;28;20475;-76
2023/03/19 07:09:57;;;;;;;1.60;1.30;;;11.70;98.20;;;;;;5065287;28;20458;-75
2023/03/19 07:12:26;;;;;;;1.50;1.10;;;11.70;98.20;;;;;;5057323;28;20487;-75
2023/03/19 07:14:54;;;;;;;1.53;1.10;;;11.80;98.20;;;;;;5063889;28;20464;-75
2023/03/19 07:17:21;;;;;;;1.50;1.07;;;11.90;98.20;;;;;;5050054;28;20477;-77
2023/03/19 07:19:49;;;;;;;1.60;1.27;;;11.90;98.20;;;;;;5063373;28;20462;-76
2023/03/19 07:22:16;;;;;;;1.50;1.00;;;11.90;98.20;;;;;;5051524;28;20478;-76
2023/03/19 07:24:44;;;;;;;1.50;1.10;;;12.00;98.20;;;;;;5065909;28;20463;-77
2023/03/19 07:27:11;;;;;;;1.50;1.03;;;12.10;98.20;;;;;;5060041;28;20532;-76
2023/03/19 07:29:39;;;;;;;1.50;1.10;;;12.10;98.20;;;;;;5068647;28;20854;-75
2023/03/19 07:32:06;;;;;;;1.50;1.10;;;12.20;98.20;;;;;;5060785;28;20484;-77
2023/03/19 07:34:33;;;;;;;1.50;1.00;;;12.10;98.20;;;;;;5069768;28;20461;-76
2023/03/19 07:37:00;;;;;;;1.50;1.10;;;12.20;98.20;;;;;;5056010;28;20480;-75
2023/03/19 07:39:27;;;;;;;1.50;1.10;;;12.20;98.20;;;;;;5063872;28;21021;-76
2023/03/19 07:41:53;;;;;;;1.50;1.00;;;12.20;98.20;;;;;;5055754;28;20493;-77
2023/03/19 07:44:20;;;;;;;1.50;1.00;;;12.20;98.20;;;;;;5069568;28;20465;-78
2023/03/19 07:46:48;;;;;;;1.50;1.10;;;12.20;98.20;;;;;;5056015;28;20477;-77
2023/03/19 07:49:15;;;;;;;1.53;1.07;;;12.20;98.20;;;;;;5068089;28;20482;-78
2023/03/19 07:51:42;;;;;;;1.50;1.20;;;12.30;98.20;;;;;;5052974;28;20479;-77
2023/03/19 07:54:09;;;;;;;1.50;1.00;;;12.30;98.20;;;;;;5068284;28;20561;-78
2023/03/19 07:56:36;;;;;;;1.50;1.10;;;12.30;98.20;;;;;;5063561;28;20484;-77
2023/03/19 07:59:02;;;;;;;1.50;1.00;;;12.40;98.20;;;;;;5062255;28;20527;-76
2023/03/19 08:01:29;;;;;;;1.50;1.00;;;12.40;98.20;;;;;;5056727;28;20978;-78
2023/03/19 08:03:57;;;;;;;1.50;1.00;;;12.40;98.20;;;;;;5061935;28;20475;-77
2023/03/19 08:06:25;;;;;;;1.50;1.00;;;12.50;98.20;;;;;;5055680;28;20481;-77
2023/03/19 08:08:52;;;;;;;1.50;1.10;;;12.60;98.20;;;;;;5070835;28;20542;-77
2023/03/19 08:11:18;;;;;;;1.50;1.00;;;12.70;98.20;;;;;;5064708;28;21019;-77
2023/03/19 08:13:45;;;;;;;1.50;1.10;;;12.70;98.20;;;;;;5073688;28;20462;-77
2023/03/19 08:16:12;;;;;;;1.50;1.10;;;12.80;98.20;;;;;;5060022;28;20755;-77
2023/03/19 08:18:39;;;;;;;1.50;1.00;;;12.90;98.20;;;;;;5075104;28;20491;-76
2023/03/19 08:21:07;;;;;;;1.50;1.07;;;12.90;98.20;;;;;;5061904;28;20906;-77
2023/03/19 08:23:34;;;;;;;1.50;1.00;;;13.00;98.20;;;;;;5071463;28;20468;-77
2023/03/19 08:26:01;;;;;;;1.50;1.00;;;13.10;98.20;;;;;;5060899;28;20457;-77
2023/03/19 08:28:28;;;;;;;1.50;1.00;;;13.30;98.20;;;;;;5073069;28;20809;-77
2023/03/19 08:30:55;;;;;;;1.70;1.60;;;13.40;98.20;;;;;;5063428;28;20468;-76
2023/03/19 08:33:23;;;;;;;1.50;1.10;;;13.50;98.20;;;;;;5071334;28;20520;-77
2023/03/19 08:35:50;;;;;;;1.50;1.00;;;13.60;98.20;;;;;;5064566;28;20915;-77
2023/03/19 08:38:19;;;;;;;1.50;1.00;;;13.70;98.20;;;;;;5075904;28;20732;-76
2023/03/19 08:40:46;;;;;;;1.50;1.00;;;13.70;98.20;;;;;;5077699;28;20853;-76
2023/03/19 08:43:13;;;;;;;1.50;1.00;;;13.70;98.20;;;;;;5069271;28;20888;-77
2023/03/19 08:45:40;;;;;;;1.50;1.10;;;13.70;98.20;;;;;;5073731;28;20542;-78
2023/03/19 08:48:07;;;;;;;1.50;1.00;;;13.80;98.20;;;;;;5065851;28;20516;-77
2023/03/19 08:50:34;;;;;;;1.50;1.00;;;13.90;98.20;;;;;;5071250;28;20469;-77
2023/03/19 08:53:01;;;;;;;1.50;1.00;;;14.10;98.20;;;;;;5063777;28;20488;-77
2023/03/19 08:55:29;;;;;;;1.50;1.00;;;14.20;98.20;;;;;;5073467;28;21417;-77
2023/03/19 08:57:56;;;;;;;1.50;1.00;;;14.40;98.20;;;;;;5063995;28;20933;-76
2023/03/19 09:00:23;;;;;;;1.53;1.00;;;14.50;98.20;;;;;;5073542;28;20457;-76
2023/03/19 09:02:49;;;;;;;1.50;1.00;;;14.60;98.20;;;;;;5062707;28;20476;-75
2023/03/19 09:05:19;;;;;;;1.53;1.00;;;14.70;98.20;;;;;;5071509;28;20833;-76
2023/03/19 09:07:46;;;;;;;1.53;1.00;;;14.70;98.20;;;;;;5050674;28;20490;-76
2023/03/19 09:10:13;;;;;;;1.50;1.10;;;14.90;98.20;;;;;;5070199;28;20475;-75
2023/03/19 09:12:41;;;;;;;1.50;1.00;;;15.00;98.20;;;;;;5064838;28;20477;-76
2023/03/19 09:15:08;;;;;;;1.50;0.97;;;15.20;98.20;;;;;;5071042;28;20530;-75
2023/03/19 09:17:35;;;;;;;1.60;1.00;;;15.30;98.20;;;;;;5059500;28;21370;-75
2023/03/19 09:20:02;;;;;;;1.50;1.00;;;15.40;98.20;;;;;;5068311;28;20476;-76
2023/03/19 09:22:29;;;;;;;1.53;0.90;;;15.50;98.20;;;;;;5063585;28;20476;-77
2023/03/19 09:24:56;;;;;;;1.60;1.20;;;15.50;98.20;;;;;;5074960;28;20466;-76
2023/03/19 09:27:23;;;;;;;1.60;1.00;;;15.50;98.20;;;;;;5065979;28;20831;-75
2023/03/19 09:29:51;;;;;;;1.50;0.90;;;15.80;98.20;;;;;;5071622;28;20458;-76
2023/03/19 09:32:18;;;;;;;1.60;0.90;;;16.00;98.20;;;;;;5063975;28;20918;-75
2023/03/19 09:34:45;;;;;;;1.53;0.90;;;16.20;98.20;;;;;;5076515;28;20457;-76
2023/03/19 09:37:12;;;;;;;1.50;1.00;;;16.30;98.20;;;;;;5066664;28;20480;-76
2023/03/19 09:39:39;;;;;;;1.57;1.00;;;16.50;98.20;;;;;;5066971;28;20577;-76
2023/03/19 09:42:19;;;;;;;1.50;1.00;;;16.70;98.20;;;;;;5055552;28;20478;-76
2023/03/19 09:44:46;;;;;;;1.50;1.00;;;17.00;98.20;;;;;;5072825;28;20471;-76
2023/03/19 09:47:26;;;;;;;1.50;1.00;;;17.60;98.20;;;;;;5064835;28;20472;-77
2023/03/19 09:49:56;;;;;;;1.50;1.00;;;18.10;97.10;;;;;;5071771;28;20453;-76
2023/03/19 09:52:37;;;;;;;1.50;0.90;;;18.40;94.60;;;;;;5052366;28;20895;-76
2023/03/19 09:55:12;;;;;;;1.50;0.90;;;18.60;93.70;;;;;;5073524;28;20545;-77
2023/03/19 09:57:40;;;;;;;1.50;0.90;;;18.60;93.70;;;;;;5056622;28;21136;-77
2023/03/19 10:00:21;;;;;;;1.50;0.90;;;18.60;93.30;;;;;;5055554;28;20488;-78
2023/03/19 10:02:53;;;;;;;1.53;0.93;;;18.50;93.10;;;;;;5055102;28;20487;-76
2023/03/19 10:05:27;;;;;;;1.50;0.90;;;18.30;94.10;;;;;;5067013;28;20477;-77
2023/03/19 10:08:22;;;;;;;1.50;0.90;;;18.10;93.70;;;;;;5050597;28;20552;-76
2023/03/19 10:10:55;;;;;;;1.50;0.90;;;17.80;95.10;;;;;;5056683;28;20456;-76
2023/03/19 10:13:36;;;;;;;1.50;0.90;;;17.70;94.30;;;;;;5066903;28;20452;-76
2023/03/19 10:16:05;;;;;;;1.50;1.00;;;17.60;94.60;;;;;;5057720;28;20852;-76
2023/03/19 10:18:38;;;;;;;1.50;0.90;;;17.50;95.00;;;;;;5062261;28;20481;-75
2023/03/19 10:21:10;;;;;;;1.50;0.90;;;17.30;95.90;;;;;;5057553;28;20888;-76
2023/03/19 10:23:44;;;;;;;1.50;1.00;;;17.20;96.80;;;;;;5064028;28;20512;-76
2023/03/19 10:26:15;;;;;;;1.50;1.00;;;17.10;96.80;;;;;;5051800;28;21076;-76
2023/03/19 10:28:44;;;;;;;1.50;0.90;;;16.90;97.30;;;;;;5065196;28;20484;-76
2023/03/19 10:31:25;;;;;;;1.50;1.00;;;16.70;98.20;;;;;;5059119;28;20477;-76
2023/03/19 10:34:04;;;;;;;1.50;1.00;;;16.50;98.20;;;;;;5067560;28;20571;-75
2023/03/19 10:36:35;;;;;;;1.50;0.93;;;16.20;98.20;;;;;;5055473;28;20520;-75
2023/03/19 10:39:05;;;;;;;1.50;0.90;;;15.90;98.20;;;;;;5065144;28;20484;-76
2023/03/19 10:41:40;;;;;;;1.50;0.90;;;15.70;98.20;;;;;;5054027;28;20597;-77
2023/03/19 10:44:14;;;;;;;1.50;0.90;;;15.30;98.20;;;;;;5067561;28;20492;-77
2023/03/19 10:46:41;;;;;;;1.50;1.00;;;15.10;98.20;;;;;;5054284;28;20562;-76
2023/03/19 10:49:15;;;;;;;1.57;1.00;;;15.10;98.20;;;;;;5061937;28;20485;-76
2023/03/19 10:51:44;;;;;;;1.50;0.90;;;15.00;98.20;;;;;;5057197;28;20856;-76
2023/03/19 10:54:21;;;;;;;1.50;1.00;;;15.00;98.20;;;;;;5064112;28;20469;-76
2023/03/19 10:56:48;;;;;;;1.50;0.90;;;15.00;98.20;;;;;;5052755;28;20509;-77
2023/03/19 10:59:22;;;;;;;1.50;1.00;;;15.10;98.20;;;;;;5065018;28;20954;-77
2023/03/19 11:01:50;;;;;;;1.50;1.00;;;15.10;98.20;;;;;;5047872;28;20473;-75
2023/03/19 11:04:21;;;;;;;1.50;1.00;;;15.10;98.20;;;;;;5062945;28;20458;-76
2023/03/19 11:06:49;;;;;;;1.50;0.90;;;15.20;98.20;;;;;;5055398;28;20483;-77
2023/03/19 11:09:23;;;;;;;1.50;1.00;;;15.40;98.20;;;;;;5067192;28;20900;-77
2023/03/19 11:11:53;;;;;;;1.50;1.00;;;15.60;98.20;;;;;;5052660;28;20473;-78
2023/03/19 11:14:24;;;;;;;1.50;0.90;;;15.80;98.20;;;;;;5057638;28;20469;-78
2023/03/19 11:16:56;;;;;;;1.53;1.10;;;15.90;98.20;;;;;;5052353;28;20919;-77
2023/03/19 11:19:26;;;;;;;1.50;0.90;;;16.00;98.20;;;;;;5066895;28;21090;-78
2023/03/19 11:22:10;;;;;;;1.50;1.00;;;16.20;98.20;;;;;;5054957;28;20687;-78
2023/03/19 11:24:38;;;;;;;1.50;0.90;;;16.30;98.20;;;;;;5062750;28;20497;-78
2023/03/19 11:27:05;;;;;;;1.50;1.00;;;16.30;98.20;;;;;;5050064;28;20483;-78
2023/03/19 11:29:34;;;;;;;1.50;0.90;;;16.40;98.20;;;;;;5062834;28;20481;-78
2023/03/19 11:32:12;;;;;;;1.50;1.00;;;16.30;98.20;;;;;;5051791;28;20985;-78
2023/03/19 11:34:48;;;;;;;1.50;0.90;;;16.00;98.20;;;;;;5056743;28;20470;-77
2023/03/19 11:37:27;;;;;;;1.50;0.90;;;15.80;98.20;;;;;;5057072;28;20983;-79
2023/03/19 11:40:03;;;;;;;1.50;1.00;;;15.60;98.20;;;;;;5066006;28;20467;-78
2023/03/19 11:42:48;;;;;;;1.50;0.97;;;15.40;98.20;;;;;;5051874;28;20491;-78
2023/03/19 11:45:27;;;;;;;1.50;1.00;;;15.30;98.20;;;;;;5063147;28;20526;-76
2023/03/19 11:48:05;;;;;;;1.50;1.00;;;15.20;98.20;;;;;;5058020;28;20856;-77
2023/03/19 11:50:45;;;;;;;1.50;0.90;;;15.30;98.20;;;;;;5063356;28;20478;-78
2023/03/19 11:53:22;;;;;;;1.50;1.00;;;15.20;98.20;;;;;;5053443;28;20477;-78
2023/03/19 11:55:58;;;;;;;1.50;0.97;;;15.30;98.20;;;;;;5050599;28;21041;-77
2023/03/19 11:58:56;;;;;;;1.50;1.00;;;15.40;98.20;;;;;;5065807;28;20576;-77
2023/03/19 12:01:44;;;;;;;1.50;0.90;;;15.40;98.20;;;;;;5062633;28;21047;-78
2023/03/19 12:04:37;;;;;;;1.50;1.00;;;15.50;98.20;;;;;;5065471;28;20488;-77
2023/03/19 12:07:13;;;;;;;1.50;0.90;;;15.60;98.20;;;;;;5056115;28;21175;-77
2023/03/19 12:09:50;;;;;;;1.50;0.90;;;15.90;98.20;;;;;;5068454;28;20484;-78
2023/03/19 12:12:23;;;;;;;1.50;0.90;;;16.10;98.20;;;;;;5056524;28;20476;-77
2023/03/19 12:15:01;;;;;;;1.53;1.10;;;16.40;98.20;;;;;;5062589;28;20461;-77
2023/03/19 12:17:51;;;;;;;1.50;0.90;;;16.70;98.20;;;;;;5052862;28;20790;-78
2023/03/19 12:20:32;;;;;;;1.50;0.97;;;17.00;98.20;;;;;;5069328;28;20491;-78
2023/03/19 12:23:22;;;;;;;1.50;0.90;;;17.00;98.20;;;;;;5050763;28;20489;-79
2023/03/19 12:26:04;;;;;;;1.50;0.90;;;17.30;98.20;;;;;;5055082;28;20533;-80
2023/03/19 12:28:34;;;;;;;1.50;0.90;;;17.70;98.20;;;;;;5062171;28;20488;-78
2023/03/19 12:31:42;;;;;;;1.50;0.90;;;18.00;98.20;;;;;;5059674;28;20552;-79
2023/03/19 12:34:23;;;;;;;1.50;0.90;;;18.30;98.20;;;;;;5060992;28;20452;-80
2023/03/19 12:36:55;;;;;;;1.50;0.90;;;18.60;98.20;;;;;;5047586;28;20480;-79
2023/03/19 12:39:29;;;;;;;1.50;1.00;;;18.60;98.20;;;;;;5054779;28;20580;-77
2023/03/19 12:42:00;;;;;;;1.60;1.20;;;18.50;98.20;;;;;;5048337;28;20532;-78
2023/03/19 12:44:30;;;;;;;1.50;1.00;;;18.20;98.00;;;;;;5062294;28;20489;-80
2023/03/19 12:47:01;;;;;;;1.50;0.90;;;18.00;98.20;;;;;;5056394;28;21092;-77
2023/03/19 12:49:34;;;;;;;1.50;0.90;;;17.80;98.20;;;;;;5059360;28;20586;-78
2023/03/19 12:52:08;;;;;;;1.50;0.93;;;17.70;98.20;;;;;;5048789;28;21280;-78
2023/03/19 12:54:41;;;;;;;1.50;0.90;;;17.50;98.20;;;;;;5061770;28;20466;-78
2023/03/19 12:57:16;;;;;;;1.50;0.90;;;17.30;98.20;;;;;;5050671;28;20948;-78
2023/03/19 12:59:48;;;;;;;1.50;0.90;;;17.20;98.20;;;;;;5068619;28;20480;-77
2023/03/19 13:02:21;;;;;;;1.50;0.90;;;17.10;98.20;;;;;;5042596;28;20482;-77
2023/03/19 13:04:53;;;;;;;1.50;0.90;;;16.90;98.20;;;;;;5060904;28;20574;-79
2023/03/19 13:07:24;;;;;;;1.50;1.00;;;16.80;98.20;;;;;;5059910;28;20488;-78
2023/03/19 13:10:00;;;;;;;1.50;0.90;;;16.70;98.20;;;;;;5063260;28;20461;-79
2023/03/19 13:12:30;;;;;;;1.50;0.90;;;16.50;98.20;;;;;;5056491;28;20549;-78
2023/03/19 13:15:03;;;;;;;1.50;0.90;;;16.40;98.20;;;;;;5062273;28;20469;-77
2023/03/19 13:17:37;;;;;;;1.50;0.90;;;16.30;98.20;;;;;;5057838;28;20476;-78
2023/03/19 13:20:18;;;;;;;1.50;0.97;;;16.20;98.20;;;;;;5068441;28;20461;-77
2023/03/19 13:22:50;;;;;;;1.50;0.90;;;16.10;98.20;;;;;;5056314;28;20515;-78
2023/03/19 13:25:25;;;;;;;1.50;1.00;;;15.90;98.20;;;;;;5068228;28;20461;-77
2023/03/19 13:27:55;;;;;;;1.50;1.00;;;15.80;98.20;;;;;;5052818;28;20593;-77
2023/03/19 13:30:25;;;;;;;1.50;1.00;;;15.80;98.20;;;;;;5072222;28;20463;-78
2023/03/19 13:33:01;;;;;;;1.50;1.00;;;15.70;98.20;;;;;;5055799;28;20487;-77
2023/03/19 13:35:37;;;;;;;1.50;0.97;;;15.60;98.20;;;;;;5066147;28;20896;-78
2023/03/19 13:38:14;;;;;;;1.50;1.00;;;15.60;98.20;;;;;;5053538;28;20876;-78
2023/03/19 13:40:48;;;;;;;1.50;1.00;;;15.60;98.20;;;;;;5060312;28;20551;-77
2023/03/19 13:43:51;;;;;;;1.50;0.90;;;15.60;98.20;;;;;;5044120;28;20826;-77
2023/03/19 13:46:39;;;;;;;1.50;0.90;;;15.70;98.20;;;;;;5058879;28;20850;-78
2023/03/19 13:49:25;;;;;;;1.50;1.00;;;15.70;98.20;;;;;;5064259;28;20492;-78
2023/03/19 13:51:56;;;;;;;1.50;1.00;;;15.60;98.20;;;;;;5051967;28;21216;-77
2023/03/19 13:54:34;;;;;;;1.50;1.00;;;15.70;98.20;;;;;;5066191;28;20515;-77
2023/03/19 13:57:34;;;;;;;1.50;0.90;;;15.60;98.20;;;;;;5050932;28;20904;-76
2023/03/19 14:00:47;;;;;;;1.50;0.97;;;15.70;98.20;;;;;;5070039;28;20487;-76
2023/03/19 14:03:22;;;;;;;1.50;0.90;;;15.70;98.20;;;;;;5047149;28;21001;-77
2023/03/19 14:05:51;;;;;;;1.50;1.00;;;15.70;98.20;;;;;;5047558;28;20457;-77
2023/03/19 14:08:21;;;;;;;1.50;1.00;;;15.60;98.20;;;;;;5066858;28;20558;-77
2023/03/19 14:10:52;;;;;;;1.50;0.90;;;15.50;98.20;;;;;;5053743;28;20484;-77
2023/03/19 14:13:37;;;;;;;1.50;1.00;;;15.40;98.20;;;;;;5065894;28;20875;-76
2023/03/19 14:16:10;;;;;;;1.50;1.00;;;15.30;98.20;;;;;;5052202;28;20547;-77
2023/03/19 14:18:42;;;;;;;1.50;1.00;;;15.30;98.20;;;;;;5070189;28;20508;-76
2023/03/19 14:21:13;;;;;;;1.50;1.00;;;15.40;98.20;;;;;;5057320;28;20492;-77
2023/03/19 14:23:42;;;;;;;1.50;1.00;;;15.30;98.20;;;;;;5059453;28;20490;-76
2023/03/19 14:26:15;;;;;;;1.50;1.00;;;15.20;98.20;;;;;;5053830;28;21175;-76
2023/03/19 14:28:53;;;;;;;1.50;1.00;;;15.20;98.20;;;;;;5071514;28;20541;-78
2023/03/19 14:31:25;;;;;;;1.50;1.00;;;15.10;98.20;;;;;;5053371;28;20509;-76
2023/03/19 14:34:01;;;;;;;2.33;1.50;;;15.10;98.20;;;;;;5064129;28;20466;-77
2023/03/19 14:36:30;;;;;;;1.50;1.00;;;15.00;98.20;;;;;;5055027;28;20465;-75
2023/03/19 14:38:59;;;;;;;1.50;0.90;;;14.90;98.20;;;;;;5064993;28;20509;-76
2023/03/19 14:41:28;;;;;;;1.50;1.00;;;14.90;98.20;;;;;;5060704;28;20852;-76
2023/03/19 14:44:14;;;;;;;1.50;1.07;;;14.80;98.20;;;;;;5062946;28;20606;-76
2023/03/19 14:47:02;;;;;;;1.53;1.00;;;14.70;98.20;;;;;;5055712;28;20631;-75
2023/03/19 14:49:53;;;;;;;1.50;1.00;;;14.50;98.20;;;;;;5063427;28;20485;-75
2023/03/19 14:52:22;;;;;;;1.50;1.00;;;14.40;98.20;;;;;;5053773;28;20670;-76
2023/03/19 14:54:52;;;;;;;1.50;1.00;;;14.40;98.20;;;;;;5066738;28;20467;-76
2023/03/19 14:57:20;;;;;;;1.50;1.00;;;14.40;98.20;;;;;;5060049;28;20473;-75
2023/03/19 14:59:49;;;;;;;1.50;0.90;;;14.30;98.20;;;;;;5069225;28;20497;-76
2023/03/19 15:02:27;;;;;;;1.50;1.00;;;14.20;98.20;;;;;;5048136;28;20481;-76
2023/03/19 15:04:55;;;;;;;1.50;1.00;;;14.20;98.20;;;;;;5062151;28;20488;-76
2023/03/19 15:07:29;;;;;;;1.53;1.00;;;14.10;98.20;;;;;;5058526;28;20493;-77
2023/03/19 15:09:59;;;;;;;1.50;1.00;;;14.10;98.20;;;;;;5069849;28;20537;-75
2023/03/19 15:12:46;;;;;;;1.50;1.00;;;14.10;98.20;;;;;;5060815;28;20572;-77
2023/03/19 15:15:43;;;;;;;1.50;1.00;;;14.00;98.20;;;;;;5068454;28;20481;-78
2023/03/19 15:18:12;;;;;;;1.50;1.00;;;14.00;98.20;;;;;;5015451;28;20608;-76
2023/03/19 15:20:43;;;;;;;1.50;1.03;;;13.90;98.20;;;;;;5066312;28;20490;-77
2023/03/19 15:23:12;;;;;;;1.50;1.10;;;13.80;98.20;;;;;;5056388;28;20499;-76
2023/03/19 15:25:45;;;;;;;1.50;1.00;;;13.80;98.20;;;;;;5068284;28;20457;-76
2023/03/19 15:28:14;;;;;;;1.50;1.00;;;13.70;98.20;;;;;;5041273;28;20490;-77
2023/03/19 15:30:43;;;;;;;1.50;1.00;;;13.70;98.20;;;;;;5071131;28;21132;-77
2023/03/19 15:33:22;;;;;;;1.50;1.00;;;13.70;98.20;;;;;;5053946;28;20584;-76
2023/03/19 15:35:51;;;;;;;1.50;1.00;;;13.60;98.20;;;;;;5055215;28;20820;-77
2023/03/19 15:38:18;;;;;;;1.50;1.00;;;13.60;98.20;;;;;;5056369;28;20493;-76
2023/03/19 15:40:45;;;;;;;1.50;1.00;;;13.60;98.20;;;;;;5061724;28;20469;-76
2023/03/19 15:43:13;;;;;;;1.50;1.10;;;13.60;98.20;;;;;;5060749;28;20466;-77
2023/03/19 15:45:44;;;;;;;1.50;1.00;;;13.60;98.20;;;;;;5064926;28;20495;-76
2023/03/19 15:48:20;;;;;;;1.50;1.00;;;13.60;98.20;;;;;;5040851;28;21041;-76
2023/03/19 15:50:50;;;;;;;1.50;1.00;;;13.70;98.20;;;;;;5053315;28;21293;-77
2023/03/19 15:53:21;;;;;;;1.50;1.00;;;13.70;98.20;;;;;;5065995;22;20505;-73
2023/03/19 15:55:50;;;;;;;1.50;1.10;;;13.70;98.20;;;;;;5041881;28;20542;-74
2023/03/19 15:58:22;;;;;;;1.50;1.00;;;13.80;98.20;;;;;;5053686;28;20917;-75
2023/03/19 16:00:52;;;;;;;1.50;1.00;;;13.90;98.20;;;;;;5036198;28;20451;-75
2023/03/19 16:03:22;;;;;;;1.50;1.00;;;13.90;98.20;;;;;;5043298;28;20592;-73
2023/03/19 16:05:52;;;;;;;1.70;1.47;;;14.00;98.20;;;;;;5039272;28;20474;-73
2023/03/19 16:08:25;;;;;;;1.50;1.00;;;14.00;98.20;;;;;;5033741;28;20481;-73
2023/03/19 16:10:52;;;;;;;1.50;1.00;;;14.00;98.20;;;;;;5035423;28;20510;-73
2023/03/19 16:13:27;;;;;;;1.50;1.00;;;14.00;98.20;;;;;;5043389;28;20480;-74
2023/03/19 16:16:02;;;;;;;1.50;1.00;;;13.90;98.20;;;;;;5035105;28;20872;-75
2023/03/19 16:18:30;;;;;;;1.50;1.00;;;13.90;98.20;;;;;;5044683;28;20463;-73
2023/03/19 16:21:09;;;;;;;1.60;1.40;;;13.80;98.20;;;;;;5036384;28;20539;-73
2023/03/19 16:23:42;;;;;;;1.50;1.00;;;13.80;98.20;;;;;;5040871;28;20692;-73
2023/03/19 16:26:18;;;;;;;1.50;1.00;;;13.70;98.20;;;;;;5027966;28;20596;-73
2023/03/19 16:28:51;;;;;;;1.50;1.10;;;13.60;98.20;;;;;;5039147;28;20790;-73
2023/03/19 16:31:27;;;;;;;1.50;1.10;;;13.60;98.20;;;;;;5041281;28;20914;-73
2023/03/19 16:33:56;;;;;;;1.50;1.00;;;13.60;98.20;;;;;;5038492;28;20558;-73
2023/03/19 16:36:27;;;;;;;1.50;1.00;;;13.60;98.20;;;;;;5036964;28;20474;-73
2023/03/19 16:38:57;;;;;;;1.50;1.10;;;13.50;98.20;;;;;;5039811;28;21005;-74
2023/03/19 16:41:32;;;;;;;1.50;1.00;;;13.50;98.20;;;;;;5036984;28;20474;-74
2023/03/19 16:44:13;;;;;;;1.50;1.00;;;13.50;98.20;;;;;;5038246;28;20500;-74
2023/03/19 16:46:41;;;;;;;1.50;1.10;;;13.40;98.20;;;;;;5039121;28;20516;-74
2023/03/19 16:49:08;;;;;;;1.50;1.00;;;13.40;98.20;;;;;;5048725;28;20461;-74
2023/03/19 16:51:35;;;;;;;1.50;1.10;;;13.40;98.20;;;;;;5037108;28;20484;-74
2023/03/19 16:54:02;;;;;;;1.50;1.00;;;13.40;98.20;;;;;;5040921;28;20511;-74
2023/03/19 16:56:30;;;;;;;1.50;1.10;;;13.40;98.20;;;;;;5033053;28;20481;-75
2023/03/19 16:58:57;;;;;;;1.50;1.00;;;13.50;98.20;;;;;;5041062;28;20462;-75
2023/03/19 17:01:25;;;;;;;1.53;1.10;;;13.40;98.20;;;;;;5041778;28;20561;-75
2023/03/19 17:03:54;;;;;;;1.50;1.00;;;13.40;98.20;;;;;;5044306;28;20478;-74
2023/03/19 17:06:22;;;;;;;1.50;1.00;;;13.40;98.20;;;;;;5037831;28;20466;-75
2023/03/19 17:08:48;;;;;;;1.50;1.00;;;13.40;98.20;;;;;;5043393;28;20964;-78
2023/03/19 17:11:24;;;;;;;1.50;1.00;;;13.40;98.20;;;;;;5039157;28;20472;-74
2023/03/19 17:13:52;;;;;;;1.50;1.10;;;13.40;98.20;;;;;;5045781;28;21016;-74
2023/03/19 17:16:20;;;;;;;1.50;1.00;;;13.40;98.20;;;;;;5039195;28;20478;-74
2023/03/19 17:18:48;;;;;;;1.50;1.00;;;13.40;98.20;;;;;;5046974;28;20847;-74
2023/03/19 17:21:21;;;;;;;1.50;1.00;;;13.40;98.20;;;;;;5034382;28;20470;-74
2023/03/19 17:23:47;;;;;;;1.50;1.10;;;13.40;98.20;;;;;;5042907;28;20872;-74
2023/03/19 17:26:16;;;;;;;1.50;1.00;;;13.30;98.20;;;;;;5033963;28;20489;-74
2023/03/19 17:28:43;;;;;;;1.50;1.00;;;13.30;98.20;;;;;;5035125;28;20470;-74
2023/03/19 17:31:22;;;;;;;1.50;1.00;;;13.20;98.20;;;;;;5039553;28;20582;-75
2023/03/19 17:33:52;;;;;;;1.53;1.10;;;13.20;98.20;;;;;;5028529;28;20907;-75
2023/03/19 17:36:42;;;;;;;1.53;1.00;;;13.10;98.20;;;;;;5037062;28;20914;-76
2023/03/19 17:39:11;;;;;;;1.50;1.10;;;13.00;98.20;;;;;;5048860;28;20510;-75
2023/03/19 17:41:38;;;;;;;1.53;1.10;;;13.00;98.20;;;;;;5030600;28;20493;-75
2023/03/19 17:44:05;;;;;;;1.50;1.10;;;12.90;98.20;;;;;;5033300;28;20513;-75
2023/03/19 17:46:36;;;;;;;1.53;1.00;;;12.90;98.20;;;;;;5042106;28;20876;-77
2023/03/19 17:49:03;;;;;;;1.50;1.00;;;12.80;98.20;;;;;;5022141;28;20454;-75
2023/03/19 17:51:31;;;;;;;1.50;1.00;;;12.70;98.20;;;;;;5018865;28;20493;-75
2023/03/19 17:53:59;;;;;;;1.57;1.20;;;12.70;98.20;;;;;;5049560;28;20505;-75
2023/03/19 17:56:26;;;;;;;1.50;1.00;;;12.60;98.20;;;;;;5032554;28;20908;-75
2023/03/19 17:58:53;;;;;;;1.50;1.00;;;12.60;98.20;;;;;;5042499;28;20991;-74
2023/03/19 18:01:22;;;;;;;1.57;1.10;;;12.50;98.20;;;;;;5032773;28;20551;-74
2023/03/19 18:03:50;;;;;;;1.50;1.00;;;12.50;98.20;;;;;;5033333;28;21048;-74
2023/03/19 18:06:20;;;;;;;1.57;1.10;;;12.50;98.20;;;;;;5033984;28;20597;-75
2023/03/19 18:08:49;;;;;;;1.53;1.10;;;12.40;98.20;;;;;;5046260;28;20466;-74
2023/03/19 18:11:16;;;;;;;1.53;1.10;;;12.40;98.20;;;;;;5040973;28;21156;-74
2023/03/19 18:13:43;;;;;;;1.50;1.00;;;12.30;98.20;;;;;;5051385;28;20834;-74
2023/03/19 18:16:18;;;;;;;1.50;1.07;;;12.30;98.20;;;;;;5034676;28;20625;-75
2023/03/19 18:18:45;;;;;;;1.60;1.20;;;12.30;98.20;;;;;;5037344;28;20886;-77
2023/03/19 18:21:16;;;;;;;1.50;1.00;;;12.30;98.20;;;;;;5038081;28;20506;-76
2023/03/19 18:24:06;;;;;;;1.50;1.10;;;12.30;98.20;;;;;;5048346;28;21056;-74
2023/03/19 18:26:33;;;;;;;1.50;1.00;;;12.20;98.20;;;;;;5035846;28;20494;-78
2023/03/19 18:29:00;;;;;;;1.50;1.00;;;12.20;98.20;;;;;;5037811;28;20472;-77
2023/03/19 18:31:29;;;;;;;1.53;1.10;;;12.20;98.20;;;;;;5041819;28;20478;-77
2023/03/19 18:33:58;;;;;;;1.53;1.10;;;12.10;98.20;;;;;;5031618;28;20483;-74
2023/03/19 18:36:29;;;;;;;1.50;1.00;;;12.10;98.20;;;;;;5027974;28;20478;-75
2023/03/19 18:39:05;;;;;;;1.53;1.10;;;12.10;98.20;;;;;;5042127;28;20470;-75
2023/03/19 18:41:32;;;;;;;1.60;1.10;;;12.10;98.20;;;;;;5028670;28;21068;-75
2023/03/19 18:43:58;;;;;;;1.57;1.10;;;12.10;98.20;;;;;;5046822;28;20490;-76
2023/03/19 18:46:36;;;;;;;1.50;1.00;;;12.10;98.20;;;;;;5034776;28;20723;-76
2023/03/19 18:49:06;;;;;;;1.50;1.10;;;12.10;98.20;;;;;;5031473;28;20457;-76